sensor_id;sensor_type;location;lat;lon;timestamp;temperature;humidity
27492;DHT22;14927;51.210;6.838;2024-03-23T00:54:36;13.60;63.30
27492;DHT22;14927;51.210;6.838;2024-03-23T00:57:21;13.50;62.60
27492;DHT22;14927;51.210;6.838;2024-03-23T01:00:06;13.50;62.60
27492;DHT22;14927;51.210;6.838;2024-03-23T01:02:51;13.50;62.60
27492;DHT22;14927;51.210;6.838;2024-03-23T01:05:35;13.50;62.80
27492;DHT22;14927;51.210;6.838;2024-03-23T01:08:20;13.50;63.00
27492;DHT22;14927;51.210;6.838;2024-03-23T01:11:04;13.40;63.10
27492;DHT22;14927;51.210;6.838;2024-03-23T01:13:49;13.40;64.00
27492;DHT22;14927;51.210;6.838;2024-03-23T01:16:33;13.30;63.20
27492;DHT22;14927;51.210;6.838;2024-03-23T01:19:18;13.50;63.50
27492;DHT22;14927;51.210;6.838;2024-03-23T01:22:02;13.30;63.50
27492;DHT22;14927;51.210;6.838;2024-03-23T01:24:47;13.30;63.80
27492;DHT22;14927;51.210;6.838;2024-03-23T01:27:32;13.20;63.80
27492;DHT22;14927;51.210;6.838;2024-03-23T01:30:16;13.20;63.70
27492;DHT22;14927;51.210;6.838;2024-03-23T01:33:02;13.20;63.70
27492;DHT22;14927;51.210;6.838;2024-03-23T01:35:49;13.20;63.60
27492;DHT22;14927;51.210;6.838;2024-03-23T01:38:34;13.20;63.50
27492;DHT22;14927;51.210;6.838;2024-03-23T01:41:18;13.20;63.40
27492;DHT22;14927;51.210;6.838;2024-03-23T01:44:05;13.20;62.70
27492;DHT22;14927;51.210;6.838;2024-03-23T01:46:53;13.20;61.90
27492;DHT22;14927;51.210;6.838;2024-03-23T01:49:38;13.20;61.50
27492;DHT22;14927;51.210;6.838;2024-03-23T01:52:22;13.10;61.00
27492;DHT22;14927;51.210;6.838;2024-03-23T01:55:07;13.10;60.70
27492;DHT22;14927;51.210;6.838;2024-03-23T01:57:52;13.10;60.50
27492;DHT22;14927;51.210;6.838;2024-03-23T02:00:37;13.00;60.30
27492;DHT22;14927;51.210;6.838;2024-03-23T02:03:23;13.00;60.10
27492;DHT22;14927;51.210;6.838;2024-03-23T02:06:11;13.00;60.10
27492;DHT22;14927;51.210;6.838;2024-03-23T02:08:56;12.90;60.10
27492;DHT22;14927;51.210;6.838;2024-03-23T02:11:41;12.90;60.10
27492;DHT22;14927;51.210;6.838;2024-03-23T02:14:25;12.80;60.10
27492;DHT22;14927;51.210;6.838;2024-03-23T02:17:10;12.90;60.30
27492;DHT22;14927;51.210;6.838;2024-03-23T02:19:54;12.80;60.30
27492;DHT22;14927;51.210;6.838;2024-03-23T02:22:39;12.80;60.50
27492;DHT22;14927;51.210;6.838;2024-03-23T02:25:23;12.70;60.60
27492;DHT22;14927;51.210;6.838;2024-03-23T02:28:08;12.70;60.60
27492;DHT22;14927;51.210;6.838;2024-03-23T02:30:53;12.70;60.80
27492;DHT22;14927;51.210;6.838;2024-03-23T02:33:37;12.60;60.90
27492;DHT22;14927;51.210;6.838;2024-03-23T02:36:22;12.80;61.10
27492;DHT22;14927;51.210;6.838;2024-03-23T02:39:06;12.60;60.90
27492;DHT22;14927;51.210;6.838;2024-03-23T02:41:51;12.60;60.90
27492;DHT22;14927;51.210;6.838;2024-03-23T02:44:36;12.50;60.80
27492;DHT22;14927;51.210;6.838;2024-03-23T02:47:20;12.50;60.90
27492;DHT22;14927;51.210;6.838;2024-03-23T02:50:05;12.50;61.00
27492;DHT22;14927;51.210;6.838;2024-03-23T02:52:50;12.40;61.10
27492;DHT22;14927;51.210;6.838;2024-03-23T02:55:36;12.60;61.50
27492;DHT22;14927;51.210;6.838;2024-03-23T02:58:20;12.40;61.50
27492;DHT22;14927;51.210;6.838;2024-03-23T03:01:05;12.40;61.70
27492;DHT22;14927;51.210;6.838;2024-03-23T03:03:49;12.40;62.00
27492;DHT22;14927;51.210;6.838;2024-03-23T03:06:34;12.40;62.20
27492;DHT22;14927;51.210;6.838;2024-03-23T03:09:19;12.40;62.40
27492;DHT22;14927;51.210;6.838;2024-03-23T03:12:03;12.40;62.50
27492;DHT22;14927;51.210;6.838;2024-03-23T03:14:49;12.40;62.80
27492;DHT22;14927;51.210;6.838;2024-03-23T03:17:33;12.40;62.80
27492;DHT22;14927;51.210;6.838;2024-03-23T03:20:18;12.40;63.50
27492;DHT22;14927;51.210;6.838;2024-03-23T03:23:02;12.40;62.70
27492;DHT22;14927;51.210;6.838;2024-03-23T03:25:47;12.30;62.50
27492;DHT22;14927;51.210;6.838;2024-03-23T03:28:32;12.40;62.60
27492;DHT22;14927;51.210;6.838;2024-03-23T03:31:19;12.30;62.60
27492;DHT22;14927;51.210;6.838;2024-03-23T03:34:04;12.40;62.80
27492;DHT22;14927;51.210;6.838;2024-03-23T03:36:49;12.40;62.90
27492;DHT22;14927;51.210;6.838;2024-03-23T03:39:33;12.30;62.80
27492;DHT22;14927;51.210;6.838;2024-03-23T03:42:18;12.30;63.50
27492;DHT22;14927;51.210;6.838;2024-03-23T03:45:03;12.40;62.80
27492;DHT22;14927;51.210;6.838;2024-03-23T03:47:48;12.30;62.70
27492;DHT22;14927;51.210;6.838;2024-03-23T03:50:34;12.30;62.60
27492;DHT22;14927;51.210;6.838;2024-03-23T03:53:19;12.30;62.40
27492;DHT22;14927;51.210;6.838;2024-03-23T03:56:03;12.30;62.30
27492;DHT22;14927;51.210;6.838;2024-03-23T03:58:48;12.30;62.20
27492;DHT22;14927;51.210;6.838;2024-03-23T04:01:33;12.30;62.20
27492;DHT22;14927;51.210;6.838;2024-03-23T04:04:18;12.30;62.30
27492;DHT22;14927;51.210;6.838;2024-03-23T04:07:03;12.30;62.30
27492;DHT22;14927;51.210;6.838;2024-03-23T04:09:49;12.30;62.40
27492;DHT22;14927;51.210;6.838;2024-03-23T04:12:34;12.30;62.40
27492;DHT22;14927;51.210;6.838;2024-03-23T04:15:20;12.30;62.60
27492;DHT22;14927;51.210;6.838;2024-03-23T04:18:04;12.30;62.80
27492;DHT22;14927;51.210;6.838;2024-03-23T04:20:49;12.30;62.80
27492;DHT22;14927;51.210;6.838;2024-03-23T04:23:33;12.30;62.90
27492;DHT22;14927;51.210;6.838;2024-03-23T04:26:18;12.40;63.20
27492;DHT22;14927;51.210;6.838;2024-03-23T04:29:03;12.30;63.20
27492;DHT22;14927;51.210;6.838;2024-03-23T04:31:47;12.30;63.40
27492;DHT22;14927;51.210;6.838;2024-03-23T04:34:32;12.30;63.40
27492;DHT22;14927;51.210;6.838;2024-03-23T04:37:17;12.30;63.60
27492;DHT22;14927;51.210;6.838;2024-03-23T04:40:02;12.30;63.60
27492;DHT22;14927;51.210;6.838;2024-03-23T04:42:47;12.30;63.40
27492;DHT22;14927;51.210;6.838;2024-03-23T04:45:32;12.30;63.40
27492;DHT22;14927;51.210;6.838;2024-03-23T04:48:19;12.30;63.50
27492;DHT22;14927;51.210;6.838;2024-03-23T04:51:05;12.40;63.50
27492;DHT22;14927;51.210;6.838;2024-03-23T04:53:49;12.20;63.40
27492;DHT22;14927;51.210;6.838;2024-03-23T04:56:34;12.20;63.40
27492;DHT22;14927;51.210;6.838;2024-03-23T04:59:21;12.20;63.40
27492;DHT22;14927;51.210;6.838;2024-03-23T05:02:05;12.20;63.40
27492;DHT22;14927;51.210;6.838;2024-03-23T05:04:50;12.20;63.40
27492;DHT22;14927;51.210;6.838;2024-03-23T05:07:34;12.20;63.40
27492;DHT22;14927;51.210;6.838;2024-03-23T05:10:19;12.20;63.40
27492;DHT22;14927;51.210;6.838;2024-03-23T05:13:04;12.40;63.60
27492;DHT22;14927;51.210;6.838;2024-03-23T05:15:55;12.10;63.40
27492;DHT22;14927;51.210;6.838;2024-03-23T05:18:39;12.10;63.70
27492;DHT22;14927;51.210;6.838;2024-03-23T05:21:24;12.20;63.70
27492;DHT22;14927;51.210;6.838;2024-03-23T05:24:08;12.10;63.80
27492;DHT22;14927;51.210;6.838;2024-03-23T05:26:53;12.30;64.00
27492;DHT22;14927;51.210;6.838;2024-03-23T05:29:38;12.00;64.00
27492;DHT22;14927;51.210;6.838;2024-03-23T05:32:23;12.20;64.20
27492;DHT22;14927;51.210;6.838;2024-03-23T05:35:08;12.00;64.10
27492;DHT22;14927;51.210;6.838;2024-03-23T05:37:53;12.10;64.20
27492;DHT22;14927;51.210;6.838;2024-03-23T05:40:38;12.10;64.20
27492;DHT22;14927;51.210;6.838;2024-03-23T05:43:24;12.00;64.20
27492;DHT22;14927;51.210;6.838;2024-03-23T05:46:08;12.00;64.30
27492;DHT22;14927;51.210;6.838;2024-03-23T05:48:54;12.00;64.40
27492;DHT22;14927;51.210;6.838;2024-03-23T05:51:45;12.20;64.60
27492;DHT22;14927;51.210;6.838;2024-03-23T05:54:30;12.00;64.40
27492;DHT22;14927;51.210;6.838;2024-03-23T05:57:14;12.00;64.40
27492;DHT22;14927;51.210;6.838;2024-03-23T05:59:58;12.00;64.30
27492;DHT22;14927;51.210;6.838;2024-03-23T06:02:43;12.00;64.10
27492;DHT22;14927;51.210;6.838;2024-03-23T06:05:31;12.00;64.00
27492;DHT22;14927;51.210;6.838;2024-03-23T06:08:15;11.90;63.70
27492;DHT22;14927;51.210;6.838;2024-03-23T06:11:00;11.90;64.60
27492;DHT22;14927;51.210;6.838;2024-03-23T06:13:45;11.90;64.00
27492;DHT22;14927;51.210;6.838;2024-03-23T06:16:29;11.90;64.10
27492;DHT22;14927;51.210;6.838;2024-03-23T06:19:15;11.90;64.10
27492;DHT22;14927;51.210;6.838;2024-03-23T06:21:59;11.80;64.20
27492;DHT22;14927;51.210;6.838;2024-03-23T06:24:44;11.80;64.30
27492;DHT22;14927;51.210;6.838;2024-03-23T06:27:29;11.80;64.50
27492;DHT22;14927;51.210;6.838;2024-03-23T06:30:14;11.70;64.50
27492;DHT22;14927;51.210;6.838;2024-03-23T06:32:59;11.80;64.60
27492;DHT22;14927;51.210;6.838;2024-03-23T06:35:50;11.70;64.60
27492;DHT22;14927;51.210;6.838;2024-03-23T06:38:37;11.70;64.70
27492;DHT22;14927;51.210;6.838;2024-03-23T06:41:25;11.80;64.80
27492;DHT22;14927;51.210;6.838;2024-03-23T06:44:10;11.70;64.80
27492;DHT22;14927;51.210;6.838;2024-03-23T06:46:56;11.70;64.80
27492;DHT22;14927;51.210;6.838;2024-03-23T06:49:40;11.70;65.00
27492;DHT22;14927;51.210;6.838;2024-03-23T06:52:25;11.80;65.20
27492;DHT22;14927;51.210;6.838;2024-03-23T06:55:09;11.70;65.20
27492;DHT22;14927;51.210;6.838;2024-03-23T06:57:54;11.80;65.50
27492;DHT22;14927;51.210;6.838;2024-03-23T07:00:38;11.70;65.60
27492;DHT22;14927;51.210;6.838;2024-03-23T07:03:24;11.80;65.90
27492;DHT22;14927;51.210;6.838;2024-03-23T07:06:10;11.70;65.60
27492;DHT22;14927;51.210;6.838;2024-03-23T07:08:54;11.80;65.90
27492;DHT22;14927;51.210;6.838;2024-03-23T07:11:39;11.80;66.00
27492;DHT22;14927;51.210;6.838;2024-03-23T07:14:24;11.80;66.10
27492;DHT22;14927;51.210;6.838;2024-03-23T07:17:09;11.90;66.10
27492;DHT22;14927;51.210;6.838;2024-03-23T07:19:53;11.80;66.00
27492;DHT22;14927;51.210;6.838;2024-03-23T07:22:38;11.90;66.10
27492;DHT22;14927;51.210;6.838;2024-03-23T07:25:23;11.90;66.20
27492;DHT22;14927;51.210;6.838;2024-03-23T07:28:09;11.90;66.20
27492;DHT22;14927;51.210;6.838;2024-03-23T07:31:20;12.00;66.30
27492;DHT22;14927;51.210;6.838;2024-03-23T07:34:05;12.00;66.40
27492;DHT22;14927;51.210;6.838;2024-03-23T07:36:50;12.10;66.00
27492;DHT22;14927;51.210;6.838;2024-03-23T07:39:35;12.10;65.80
27492;DHT22;14927;51.210;6.838;2024-03-23T07:42:19;12.10;65.60
27492;DHT22;14927;51.210;6.838;2024-03-23T07:45:04;12.10;65.40
27492;DHT22;14927;51.210;6.838;2024-03-23T07:47:49;12.20;65.30
27492;DHT22;14927;51.210;6.838;2024-03-23T07:50:34;12.10;65.10
27492;DHT22;14927;51.210;6.838;2024-03-23T07:53:18;12.20;65.30
27492;DHT22;14927;51.210;6.838;2024-03-23T07:56:06;12.40;65.50
27492;DHT22;14927;51.210;6.838;2024-03-23T07:58:51;12.30;65.30
27492;DHT22;14927;51.210;6.838;2024-03-23T08:01:36;12.30;65.30
27492;DHT22;14927;51.210;6.838;2024-03-23T08:04:20;12.40;65.20
27492;DHT22;14927;51.210;6.838;2024-03-23T08:07:05;12.40;64.80
27492;DHT22;14927;51.210;6.838;2024-03-23T08:09:50;12.50;64.80
27492;DHT22;14927;51.210;6.838;2024-03-23T08:12:34;12.40;64.60
27492;DHT22;14927;51.210;6.838;2024-03-23T08:15:19;12.50;64.70
27492;DHT22;14927;51.210;6.838;2024-03-23T08:18:04;12.50;64.40
27492;DHT22;14927;51.210;6.838;2024-03-23T08:21:02;12.60;64.40
27492;DHT22;14927;51.210;6.838;2024-03-23T08:23:47;12.60;64.00
27492;DHT22;14927;51.210;6.838;2024-03-23T08:26:32;12.70;64.00
27492;DHT22;14927;51.210;6.838;2024-03-23T08:29:17;12.70;63.70
27492;DHT22;14927;51.210;6.838;2024-03-23T08:32:01;12.60;63.20
27492;DHT22;14927;51.210;6.838;2024-03-23T08:34:45;12.90;62.70
27492;DHT22;14927;51.210;6.838;2024-03-23T08:37:30;12.90;62.00
27492;DHT22;14927;51.210;6.838;2024-03-23T08:40:15;13.00;61.80
27492;DHT22;14927;51.210;6.838;2024-03-23T08:42:59;13.00;61.40
27492;DHT22;14927;51.210;6.838;2024-03-23T08:45:44;13.00;60.50
27492;DHT22;14927;51.210;6.838;2024-03-23T08:48:29;13.10;59.90
27492;DHT22;14927;51.210;6.838;2024-03-23T08:51:14;13.10;60.60
27492;DHT22;14927;51.210;6.838;2024-03-23T08:54:00;13.10;59.80
27492;DHT22;14927;51.210;6.838;2024-03-23T08:56:50;13.20;59.30
27492;DHT22;14927;51.210;6.838;2024-03-23T08:59:35;13.20;58.90
27492;DHT22;14927;51.210;6.838;2024-03-23T09:02:24;13.40;58.90
27492;DHT22;14927;51.210;6.838;2024-03-23T09:05:12;13.30;58.30
27492;DHT22;14927;51.210;6.838;2024-03-23T09:07:56;13.20;58.00
27492;DHT22;14927;51.210;6.838;2024-03-23T09:10:43;13.40;57.80
27492;DHT22;14927;51.210;6.838;2024-03-23T09:13:27;13.40;57.80
27492;DHT22;14927;51.210;6.838;2024-03-23T09:16:12;13.40;57.90
27492;DHT22;14927;51.210;6.838;2024-03-23T09:18:56;13.50;57.80
27492;DHT22;14927;51.210;6.838;2024-03-23T09:21:41;13.50;57.60
27492;DHT22;14927;51.210;6.838;2024-03-23T09:24:25;13.60;57.50
27492;DHT22;14927;51.210;6.838;2024-03-23T09:27:10;13.70;57.20
27492;DHT22;14927;51.210;6.838;2024-03-23T09:29:55;13.70;56.70
27492;DHT22;14927;51.210;6.838;2024-03-23T09:32:44;13.80;56.40
27492;DHT22;14927;51.210;6.838;2024-03-23T09:35:28;13.80;56.30
27492;DHT22;14927;51.210;6.838;2024-03-23T09:38:13;13.90;56.20
27492;DHT22;14927;51.210;6.838;2024-03-23T09:40:58;13.80;55.60
27492;DHT22;14927;51.210;6.838;2024-03-23T09:43:43;13.90;55.20
27492;DHT22;14927;51.210;6.838;2024-03-23T09:46:28;14.00;54.70
27492;DHT22;14927;51.210;6.838;2024-03-23T09:49:19;13.90;54.20
27492;DHT22;14927;51.210;6.838;2024-03-23T09:52:03;14.00;54.10
27492;DHT22;14927;51.210;6.838;2024-03-23T09:54:49;13.90;54.10
27492;DHT22;14927;51.210;6.838;2024-03-23T09:57:33;13.90;54.10
27492;DHT22;14927;51.210;6.838;2024-03-23T10:00:18;13.90;54.40
27492;DHT22;14927;51.210;6.838;2024-03-23T10:03:04;13.90;54.10
27492;DHT22;14927;51.210;6.838;2024-03-23T10:06:03;13.90;53.50
27492;DHT22;14927;51.210;6.838;2024-03-23T10:08:49;13.90;52.80
27492;DHT22;14927;51.210;6.838;2024-03-23T10:11:33;13.90;53.60
27492;DHT22;14927;51.210;6.838;2024-03-23T10:14:29;14.10;53.60
27492;DHT22;14927;51.210;6.838;2024-03-23T10:17:16;14.00;52.80
27492;DHT22;14927;51.210;6.838;2024-03-23T10:20:09;14.00;53.30
27492;DHT22;14927;51.210;6.838;2024-03-23T10:22:55;14.20;52.60
27492;DHT22;14927;51.210;6.838;2024-03-23T10:25:40;14.20;52.80
27492;DHT22;14927;51.210;6.838;2024-03-23T10:28:25;14.30;52.50
27492;DHT22;14927;51.210;6.838;2024-03-23T10:31:11;14.40;52.30
27492;DHT22;14927;51.210;6.838;2024-03-23T10:33:57;14.50;51.90
27492;DHT22;14927;51.210;6.838;2024-03-23T10:36:42;14.60;51.30
27492;DHT22;14927;51.210;6.838;2024-03-23T10:39:28;14.60;50.20
27492;DHT22;14927;51.210;6.838;2024-03-23T10:42:17;14.60;50.40
27492;DHT22;14927;51.210;6.838;2024-03-23T10:45:07;14.50;50.90
27492;DHT22;14927;51.210;6.838;2024-03-23T10:47:52;14.30;51.40
27492;DHT22;14927;51.210;6.838;2024-03-23T10:50:36;14.10;51.70
27492;DHT22;14927;51.210;6.838;2024-03-23T10:53:28;13.90;51.90
27492;DHT22;14927;51.210;6.838;2024-03-23T10:56:12;13.60;51.70
27492;DHT22;14927;51.210;6.838;2024-03-23T10:58:58;13.40;52.00
27492;DHT22;14927;51.210;6.838;2024-03-23T11:01:58;13.20;52.30
27492;DHT22;14927;51.210;6.838;2024-03-23T11:04:44;13.00;53.20
27492;DHT22;14927;51.210;6.838;2024-03-23T11:07:33;12.90;53.60
27492;DHT22;14927;51.210;6.838;2024-03-23T11:10:37;12.70;54.10
27492;DHT22;14927;51.210;6.838;2024-03-23T11:13:24;12.60;55.10
27492;DHT22;14927;51.210;6.838;2024-03-23T11:16:25;12.50;55.40
27492;DHT22;14927;51.210;6.838;2024-03-23T11:19:34;12.40;56.30
27492;DHT22;14927;51.210;6.838;2024-03-23T11:22:42;12.40;56.80
27492;DHT22;14927;51.210;6.838;2024-03-23T11:25:36;12.40;56.60
27492;DHT22;14927;51.210;6.838;2024-03-23T11:28:21;12.40;56.40
27492;DHT22;14927;51.210;6.838;2024-03-23T11:31:09;12.40;57.30
27492;DHT22;14927;51.210;6.838;2024-03-23T11:34:04;12.40;56.90
27492;DHT22;14927;51.210;6.838;2024-03-23T11:36:50;12.40;56.90
27492;DHT22;14927;51.210;6.838;2024-03-23T11:39:48;12.40;57.00
27492;DHT22;14927;51.210;6.838;2024-03-23T11:42:33;12.50;57.30
27492;DHT22;14927;51.210;6.838;2024-03-23T11:45:18;12.50;57.60
27492;DHT22;14927;51.210;6.838;2024-03-23T11:48:11;12.60;57.50
27492;DHT22;14927;51.210;6.838;2024-03-23T11:50:57;12.70;57.30
27492;DHT22;14927;51.210;6.838;2024-03-23T11:54:10;12.80;57.20
27492;DHT22;14927;51.210;6.838;2024-03-23T12:01:09;13.30;56.80
27492;DHT22;14927;51.210;6.838;2024-03-23T12:03:55;13.50;56.60
27492;DHT22;14927;51.210;6.838;2024-03-23T12:06:39;13.50;56.00
27492;DHT22;14927;51.210;6.838;2024-03-23T12:09:27;13.50;55.80
27492;DHT22;14927;51.210;6.838;2024-03-23T12:12:22;13.40;55.30
27492;DHT22;14927;51.210;6.838;2024-03-23T12:15:08;13.70;55.40
27492;DHT22;14927;51.210;6.838;2024-03-23T12:18:06;13.40;55.10
27492;DHT22;14927;51.210;6.838;2024-03-23T12:20:51;13.30;55.00
27492;DHT22;14927;51.210;6.838;2024-03-23T12:23:39;13.30;55.40
27492;DHT22;14927;51.210;6.838;2024-03-23T12:26:24;13.40;55.40
27492;DHT22;14927;51.210;6.838;2024-03-23T12:29:08;13.30;55.30
27492;DHT22;14927;51.210;6.838;2024-03-23T12:31:53;13.30;55.40
27492;DHT22;14927;51.210;6.838;2024-03-23T12:34:37;13.30;55.80
27492;DHT22;14927;51.210;6.838;2024-03-23T12:37:22;13.30;55.80
27492;DHT22;14927;51.210;6.838;2024-03-23T12:40:07;13.40;55.90
27492;DHT22;14927;51.210;6.838;2024-03-23T12:42:52;13.50;55.30
27492;DHT22;14927;51.210;6.838;2024-03-23T12:45:37;13.50;54.80
27492;DHT22;14927;51.210;6.838;2024-03-23T12:48:21;13.50;54.60
27492;DHT22;14927;51.210;6.838;2024-03-23T12:51:06;13.60;54.50
27492;DHT22;14927;51.210;6.838;2024-03-23T12:53:51;13.60;54.30
27492;DHT22;14927;51.210;6.838;2024-03-23T12:56:35;13.70;54.30
27492;DHT22;14927;51.210;6.838;2024-03-23T12:59:20;13.80;54.30
27492;DHT22;14927;51.210;6.838;2024-03-23T13:02:05;13.90;54.10
27492;DHT22;14927;51.210;6.838;2024-03-23T13:04:52;14.00;53.80
27492;DHT22;14927;51.210;6.838;2024-03-23T13:07:37;14.20;53.60
27492;DHT22;14927;51.210;6.838;2024-03-23T13:10:22;14.50;53.60
27492;DHT22;14927;51.210;6.838;2024-03-23T13:13:07;14.70;53.40
27492;DHT22;14927;51.210;6.838;2024-03-23T13:15:52;14.90;53.10
27492;DHT22;14927;51.210;6.838;2024-03-23T13:18:36;15.10;52.20
27492;DHT22;14927;51.210;6.838;2024-03-23T13:21:21;15.40;50.90
27492;DHT22;14927;51.210;6.838;2024-03-23T13:24:06;15.50;50.30
27492;DHT22;14927;51.210;6.838;2024-03-23T13:26:51;15.50;50.00
27492;DHT22;14927;51.210;6.838;2024-03-23T13:29:36;15.50;49.80
27492;DHT22;14927;51.210;6.838;2024-03-23T13:32:21;15.30;49.70
27492;DHT22;14927;51.210;6.838;2024-03-23T13:35:06;15.20;50.10
27492;DHT22;14927;51.210;6.838;2024-03-23T13:37:50;15.00;50.20
27492;DHT22;14927;51.210;6.838;2024-03-23T13:40:35;15.00;50.90
27492;DHT22;14927;51.210;6.838;2024-03-23T13:43:22;15.10;51.50
27492;DHT22;14927;51.210;6.838;2024-03-23T13:46:07;15.40;51.70
27492;DHT22;14927;51.210;6.838;2024-03-23T13:48:52;15.70;51.70
27492;DHT22;14927;51.210;6.838;2024-03-23T13:51:37;16.10;51.80
27492;DHT22;14927;51.210;6.838;2024-03-23T13:54:21;16.50;50.30
27492;DHT22;14927;51.210;6.838;2024-03-23T13:57:06;16.70;49.00
27492;DHT22;14927;51.210;6.838;2024-03-23T13:59:53;16.90;48.30
27492;DHT22;14927;51.210;6.838;2024-03-23T14:02:38;16.90;47.60
27492;DHT22;14927;51.210;6.838;2024-03-23T14:05:22;16.90;46.70
27492;DHT22;14927;51.210;6.838;2024-03-23T14:08:10;16.90;46.70
27492;DHT22;14927;51.210;6.838;2024-03-23T14:10:55;16.80;47.10
27492;DHT22;14927;51.210;6.838;2024-03-23T14:13:41;16.70;47.10
27492;DHT22;14927;51.210;6.838;2024-03-23T14:16:25;16.70;47.10
27492;DHT22;14927;51.210;6.838;2024-03-23T14:19:10;16.80;47.40
27492;DHT22;14927;51.210;6.838;2024-03-23T14:21:55;16.90;48.20
27492;DHT22;14927;51.210;6.838;2024-03-23T14:24:39;17.10;49.00
27492;DHT22;14927;51.210;6.838;2024-03-23T14:27:24;17.50;48.90
27492;DHT22;14927;51.210;6.838;2024-03-23T14:30:09;17.90;47.80
27492;DHT22;14927;51.210;6.838;2024-03-23T14:32:54;18.20;45.70
27492;DHT22;14927;51.210;6.838;2024-03-23T14:35:38;18.40;44.70
27492;DHT22;14927;51.210;6.838;2024-03-23T14:38:24;18.40;44.10
27492;DHT22;14927;51.210;6.838;2024-03-23T14:41:08;18.50;43.80
27492;DHT22;14927;51.210;6.838;2024-03-23T14:43:53;18.30;43.30
27492;DHT22;14927;51.210;6.838;2024-03-23T14:46:38;18.20;42.50
27492;DHT22;14927;51.210;6.838;2024-03-23T14:49:23;17.90;42.50
27492;DHT22;14927;51.210;6.838;2024-03-23T14:52:08;17.70;42.20
27492;DHT22;14927;51.210;6.838;2024-03-23T14:54:53;17.40;43.10
27492;DHT22;14927;51.210;6.838;2024-03-23T14:57:37;17.10;42.60
27492;DHT22;14927;51.210;6.838;2024-03-23T15:00:25;16.80;43.30
27492;DHT22;14927;51.210;6.838;2024-03-23T15:03:10;16.60;43.50
27492;DHT22;14927;51.210;6.838;2024-03-23T15:05:58;16.40;43.90
27492;DHT22;14927;51.210;6.838;2024-03-23T15:08:44;16.20;43.90
27492;DHT22;14927;51.210;6.838;2024-03-23T15:11:29;16.10;44.50
27492;DHT22;14927;51.210;6.838;2024-03-23T15:14:13;15.80;44.50
27492;DHT22;14927;51.210;6.838;2024-03-23T15:16:58;15.90;45.40
27492;DHT22;14927;51.210;6.838;2024-03-23T15:19:43;15.90;46.20
27492;DHT22;14927;51.210;6.838;2024-03-23T15:22:27;16.10;46.50
27492;DHT22;14927;51.210;6.838;2024-03-23T15:25:12;16.20;46.20
27492;DHT22;14927;51.210;6.838;2024-03-23T15:27:56;16.40;45.60
27492;DHT22;14927;51.210;6.838;2024-03-23T15:30:41;16.50;45.00
27492;DHT22;14927;51.210;6.838;2024-03-23T15:33:26;16.70;44.90
27492;DHT22;14927;51.210;6.838;2024-03-23T15:36:11;16.70;45.70
27492;DHT22;14927;51.210;6.838;2024-03-23T15:38:56;16.90;45.60
27492;DHT22;14927;51.210;6.838;2024-03-23T15:41:40;17.10;45.50
27492;DHT22;14927;51.210;6.838;2024-03-23T15:44:25;17.30;45.10
27492;DHT22;14927;51.210;6.838;2024-03-23T15:47:10;17.30;44.60
27492;DHT22;14927;51.210;6.838;2024-03-23T15:49:56;17.70;44.20
27492;DHT22;14927;51.210;6.838;2024-03-23T15:52:40;17.90;43.30
27492;DHT22;14927;51.210;6.838;2024-03-23T15:55:25;17.90;42.50
27492;DHT22;14927;51.210;6.838;2024-03-23T15:58:10;17.90;42.00
27492;DHT22;14927;51.210;6.838;2024-03-23T16:01:15;17.90;41.60
27492;DHT22;14927;51.210;6.838;2024-03-23T16:04:00;17.70;41.50
27492;DHT22;14927;51.210;6.838;2024-03-23T16:06:45;17.60;41.90
27492;DHT22;14927;51.210;6.838;2024-03-23T16:09:30;17.50;41.40
27492;DHT22;14927;51.210;6.838;2024-03-23T16:12:14;17.30;41.10
27492;DHT22;14927;51.210;6.838;2024-03-23T16:14:59;17.20;41.20
27492;DHT22;14927;51.210;6.838;2024-03-23T16:17:43;17.00;41.40
27492;DHT22;14927;51.210;6.838;2024-03-23T16:20:28;16.80;41.40
27492;DHT22;14927;51.210;6.838;2024-03-23T16:23:13;16.70;41.60
27492;DHT22;14927;51.210;6.838;2024-03-23T16:25:57;16.50;41.70
27492;DHT22;14927;51.210;6.838;2024-03-23T16:28:43;16.30;41.90
27492;DHT22;14927;51.210;6.838;2024-03-23T16:31:28;16.20;42.50
27492;DHT22;14927;51.210;6.838;2024-03-23T16:34:12;16.00;42.60
27492;DHT22;14927;51.210;6.838;2024-03-23T16:36:57;15.90;43.00
27492;DHT22;14927;51.210;6.838;2024-03-23T16:39:41;15.80;43.50
27492;DHT22;14927;51.210;6.838;2024-03-23T16:42:26;15.70;44.00
27492;DHT22;14927;51.210;6.838;2024-03-23T16:45:11;15.60;44.00
27492;DHT22;14927;51.210;6.838;2024-03-23T16:47:56;15.50;43.90
27492;DHT22;14927;51.210;6.838;2024-03-23T16:50:41;15.40;43.80
27492;DHT22;14927;51.210;6.838;2024-03-23T16:53:27;15.30;43.90
27492;DHT22;14927;51.210;6.838;2024-03-23T16:56:14;15.30;44.20
27492;DHT22;14927;51.210;6.838;2024-03-23T16:58:59;15.20;44.10
27492;DHT22;14927;51.210;6.838;2024-03-23T17:01:44;15.10;44.10
27492;DHT22;14927;51.210;6.838;2024-03-23T17:04:28;15.00;44.00
27492;DHT22;14927;51.210;6.838;2024-03-23T17:07:13;14.90;44.10
27492;DHT22;14927;51.210;6.838;2024-03-23T17:09:58;15.10;44.30
27492;DHT22;14927;51.210;6.838;2024-03-23T17:12:42;14.80;44.30
27492;DHT22;14927;51.210;6.838;2024-03-23T17:15:27;14.70;44.40
27492;DHT22;14927;51.210;6.838;2024-03-23T17:18:12;14.70;44.60
27492;DHT22;14927;51.210;6.838;2024-03-23T17:20:57;14.60;44.90
27492;DHT22;14927;51.210;6.838;2024-03-23T17:23:42;14.50;45.00
27492;DHT22;14927;51.210;6.838;2024-03-23T17:26:27;14.50;45.20
27492;DHT22;14927;51.210;6.838;2024-03-23T17:29:11;14.40;45.20
27492;DHT22;14927;51.210;6.838;2024-03-23T17:31:56;14.30;45.50
27492;DHT22;14927;51.210;6.838;2024-03-23T17:34:41;14.30;45.90
27492;DHT22;14927;51.210;6.838;2024-03-23T17:37:26;14.50;46.30
27492;DHT22;14927;51.210;6.838;2024-03-23T17:40:10;14.20;46.80
27492;DHT22;14927;51.210;6.838;2024-03-23T17:42:55;14.20;47.60
27492;DHT22;14927;51.210;6.838;2024-03-23T17:45:41;14.10;48.10
27492;DHT22;14927;51.210;6.838;2024-03-23T17:48:26;14.00;48.30
27492;DHT22;14927;51.210;6.838;2024-03-23T17:51:11;13.90;48.30
27492;DHT22;14927;51.210;6.838;2024-03-23T17:53:56;13.80;48.70
27492;DHT22;14927;51.210;6.838;2024-03-23T17:56:40;13.70;49.30
27492;DHT22;14927;51.210;6.838;2024-03-23T17:59:25;13.60;49.90
27492;DHT22;14927;51.210;6.838;2024-03-23T18:02:10;13.50;50.30
27492;DHT22;14927;51.210;6.838;2024-03-23T18:04:54;13.40;50.60
27492;DHT22;14927;51.210;6.838;2024-03-23T18:07:39;13.30;51.10
27492;DHT22;14927;51.210;6.838;2024-03-23T18:10:24;13.20;51.30
27492;DHT22;14927;51.210;6.838;2024-03-23T18:13:09;13.10;51.60
27492;DHT22;14927;51.210;6.838;2024-03-23T18:15:57;13.00;51.70
27492;DHT22;14927;51.210;6.838;2024-03-23T18:18:41;12.80;52.00
27492;DHT22;14927;51.210;6.838;2024-03-23T18:21:26;12.90;52.30
27492;DHT22;14927;51.210;6.838;2024-03-23T18:24:10;12.80;52.50